ADDS METAR Data INFO
IDs: Format: Raw Decoded Include TAF

Data at: 1835 UTC 16 Dec 2017

KCHD 161747Z VRB03KT 10SM OVC200 12/M05 A2982
KCHD 161647Z 32003KT 10SM OVC200 10/M06 A2982
KCHD 161547Z 00000KT 10SM OVC200 09/M05 A2981
KCHD 161447Z 13003KT 10SM OVC200 07/M04 A2981
KCHD 161347Z 00000KT 10SM CLR 05/M05 A2983
KCHD 161247Z 00000KT 10SM CLR 06/00 A2984
KCHD 160400Z 00000KT 10SM CLR 12/M03 A3001 RMK LAST
KCHD 160247Z 00000KT 10SM CLR 14/M04 A3002
KCHD 160147Z 31004KT 10SM CLR 16/M07 A3003
KCHD 160047Z 00000KT 10SM CLR 18/M08 A3003
KCHD 152347Z 00000KT 10SM CLR 22/M09 A3004
KCHD 152247Z 00000KT 10SM CLR 22/M09 A3006
KCHD 152147Z 04003KT 10SM CLR 21/M09 A3008
KCHD 152047Z 00000KT 10SM CLR 21/M08 A3012
KCHD 151947Z 01003KT 10SM CLR 21/M08 A3016
KCHD 151847Z 00000KT 10SM CLR 20/M07 A3019
KCHD 151747Z 00000KT 10SM CLR 18/M06 A3022
KCHD 151647Z 00000KT 10SM CLR 15/M04 A3023
KCHD 151547Z 00000KT 10SM CLR 11/M06 A3022
KCHD 151447Z 00000KT 10SM CLR 10/M07 A3020
KCHD 151347Z 00000KT 10SM CLR 11/M07 A3018
KCHD 151247Z 00000KT 10SM CLR 12/M07 A3016